• Join FlightAware (Why Join?)
  • Login
  • US Flag 
11:24PM EDT


 

Airport Tracker/Info


-or-


 

Live Flight TrackerFlight Track Log ✈ WIG7117 ✈ 05-Jun-2013 ✈ KALB - KSYR

Flight Track Log - Related Links

Times and Time Zones

All times are in EDT time to prevent confusion due to time zone crossing. See the WIG7117 flight status page for this flight to view local times or setup timezone preferences in your user account.

Time Position Orientation Groundspeed Altitude Reporting Facility
EDT Latitude Longitude Course Direction KTS MPH feet Rate Location/Type
10:11PM 42.7422 -73.8083 283° West 61 70 1,100  Level Boston Center
10:13PM 42.7481 -73.8425 283° West 101 116 2,400 1,020 Climbing Boston Center
10:14PM 42.7519 -73.8822 278° West 116 133 3,300 960 Climbing Boston Center
10:15PM 42.7636 -73.9417 285° West 135 155 4,600 1,020 Climbing Boston Center
10:16PM 42.7711 -73.9900 282° West 131 151 5,600 1,020 Climbing Boston Center
10:17PM 42.7811 -74.0356 287° West 124 143 6,700 960 Climbing Boston Center
10:18PM 42.7867 -74.0808 280° West 118 136 7,700 600 Climbing Boston Center
10:19PM 42.7944 -74.1264 283° West 123 142 8,000 180 Climbing Boston Center
10:20PM 42.8019 -74.1747 282° West 145 167 8,100  Climbing Boston Center
10:21PM 42.8117 -74.2258 285° West 147 169 8,000 -60 Descending Boston Center
10:21PM 42.8169 -74.2714 279° West 145 167 8,000  Level Boston Center
10:22PM 42.8267 -74.3228 284° West 144 166 8,000  Level Boston Center
10:23PM 42.8361 -74.3739 284° West 146 168 8,000  Level Boston Center
10:24PM 42.8456 -74.4308 283° West 146 168 8,000  Level Boston Center
10:26PM 42.8550 -74.4878 283° West 145 167 8,000  Level Boston Center
10:27PM 42.8625 -74.5419 281° West 144 166 8,100  Climbing Boston Center
10:28PM 42.8719 -74.5961 283° West 144 166 8,100 -60 Level Boston Center
10:29PM 42.8814 -74.6475 284° West 145 167 8,000  Descending Boston Center
10:30PM 42.8906 -74.6986 284° West 142 163 8,100  Climbing Boston Center
10:31PM 42.9000 -74.7531 283° West 143 165 8,000 -60 Descending Boston Center
10:32PM 42.9092 -74.8100 282° West 146 168 8,000  Level Boston Center
10:33PM 42.9164 -74.8642 280° West 143 165 8,100  Climbing Boston Center
10:34PM 42.9258 -74.9156 284° West 144 166 8,100  Level Boston Center
10:35PM 42.9350 -74.9697 283° West 145 167 8,100  Level Boston Center
10:36PM 42.9442 -75.0214 284° West 144 166 8,100  Level Boston Center
10:37PM 42.9514 -75.0756 280° West 144 166 8,100  Level Boston Center
10:38PM 42.9586 -75.1269 281° West 144 166 8,100  Level Boston Center
10:39PM 42.9675 -75.1869 281° West 145 167 8,100  Level Boston Center
10:40PM 42.9767 -75.2383 284° West 145 167 8,100  Level Boston Center
10:41PM 42.9858 -75.2928 283° West 146 168 8,100  Level Boston Center
10:42PM 42.9928 -75.3469 280° West 147 169 8,100  Level Boston Center
10:43PM 43.0017 -75.4014 283° West 146 168 8,100  Level Boston Center
10:44PM 43.0086 -75.4583 279° West 146 168 8,100  Level Boston Center
10:45PM 43.0197 -75.5103 286° West 146 168 8,100  Level Boston Center
10:46PM 43.0286 -75.5644 283° West 146 168 8,100  Level Boston Center
10:47PM 43.0353 -75.6217 279° West 147 169 8,100 -120 Level Boston Center
10:48PM 43.0464 -75.6764 286° West 148 170 7,900 -360 Descending Boston Center
10:49PM 43.0550 -75.7364 281° West 160 184 7,400 -540 Descending Boston Center
10:50PM 43.0658 -75.7997 283° West 162 186 6,900 -600 Descending Boston Center
10:51PM 43.0744 -75.8542 282° West 162 186 6,300 -600 Descending Boston Center
10:52PM 43.0936 -75.9150 293° West 164 189 5,800 -1,500 Descending Boston Center
10:53PM 43.1044 -75.9667 286° West 151 174 3,300 -2,160 Descending Boston Center
10:54PM 43.1106 -76.0411 276° West 178 205 1,500 -1,800 Descending Boston Center
10:56PM 43.1000 -76.1000 270° West  Level FlightAware Approximate
11:03PM 43.1112 -76.1063 270° West  Level Estimated
11:04PM 43.1112 -76.1063 270° West  Level Estimated
11:05PM 43.1112 -76.1063 270° West  Level Estimated
11:06PM 43.1112 -76.1063 270° West  Level Estimated
11:07PM 43.1112 -76.1063 270° West  Level Estimated
11:08PM 43.1112 -76.1063 270° West  Level Estimated
11:09PM 43.1112 -76.1063 270° West  Level Estimated
11:10PM 43.1112 -76.1063 270° West  Level Estimated